sensor_id;sensor_type;location;lat;lon;timestamp;P1;durP1;ratioP1;P2;durP2;ratioP2
27804;SDS011;15183;51.350;11.102;2023-02-07T00:01:20;22.52;;;14.43;;
27804;SDS011;15183;51.350;11.102;2023-02-07T00:03:47;27.02;;;15.50;;
27804;SDS011;15183;51.350;11.102;2023-02-07T00:06:16;32.60;;;14.55;;
27804;SDS011;15183;51.350;11.102;2023-02-07T00:08:49;28.23;;;14.70;;
27804;SDS011;15183;51.350;11.102;2023-02-07T00:11:16;25.15;;;14.63;;
27804;SDS011;15183;51.350;11.102;2023-02-07T00:13:45;27.42;;;15.88;;
27804;SDS011;15183;51.350;11.102;2023-02-07T00:16:15;26.50;;;16.13;;
27804;SDS011;15183;51.350;11.102;2023-02-07T00:18:42;26.05;;;15.00;;
27804;SDS011;15183;51.350;11.102;2023-02-07T00:21:09;25.55;;;15.68;;
27804;SDS011;15183;51.350;11.102;2023-02-07T00:23:40;31.40;;;16.67;;
27804;SDS011;15183;51.350;11.102;2023-02-07T00:26:07;28.98;;;15.75;;
27804;SDS011;15183;51.350;11.102;2023-02-07T00:28:34;31.08;;;16.63;;
27804;SDS011;15183;51.350;11.102;2023-02-07T00:31:23;26.98;;;15.40;;
27804;SDS011;15183;51.350;11.102;2023-02-07T00:33:52;32.22;;;15.07;;
27804;SDS011;15183;51.350;11.102;2023-02-07T00:36:25;26.02;;;14.52;;
27804;SDS011;15183;51.350;11.102;2023-02-07T00:38:56;26.13;;;15.40;;
27804;SDS011;15183;51.350;11.102;2023-02-07T00:41:24;27.55;;;15.10;;
27804;SDS011;15183;51.350;11.102;2023-02-07T00:43:51;28.00;;;15.60;;
27804;SDS011;15183;51.350;11.102;2023-02-07T00:46:18;26.88;;;16.33;;
27804;SDS011;15183;51.350;11.102;2023-02-07T00:48:44;29.08;;;16.40;;
27804;SDS011;15183;51.350;11.102;2023-02-07T00:51:11;27.83;;;17.52;;
27804;SDS011;15183;51.350;11.102;2023-02-07T00:53:38;31.08;;;17.23;;
27804;SDS011;15183;51.350;11.102;2023-02-07T00:56:06;27.73;;;15.63;;
27804;SDS011;15183;51.350;11.102;2023-02-07T00:58:33;34.45;;;18.05;;
27804;SDS011;15183;51.350;11.102;2023-02-07T01:01:00;28.85;;;16.25;;
27804;SDS011;15183;51.350;11.102;2023-02-07T01:03:27;26.20;;;15.60;;
27804;SDS011;15183;51.350;11.102;2023-02-07T01:05:53;30.38;;;17.42;;
27804;SDS011;15183;51.350;11.102;2023-02-07T01:08:20;30.40;;;17.35;;
27804;SDS011;15183;51.350;11.102;2023-02-07T01:10:46;27.88;;;16.55;;
27804;SDS011;15183;51.350;11.102;2023-02-07T01:13:13;28.40;;;16.27;;
27804;SDS011;15183;51.350;11.102;2023-02-07T01:15:42;30.67;;;17.00;;
27804;SDS011;15183;51.350;11.102;2023-02-07T01:18:10;30.30;;;17.30;;
27804;SDS011;15183;51.350;11.102;2023-02-07T01:20:37;28.73;;;17.15;;
27804;SDS011;15183;51.350;11.102;2023-02-07T01:23:04;28.55;;;16.05;;
27804;SDS011;15183;51.350;11.102;2023-02-07T01:25:31;29.45;;;16.95;;
27804;SDS011;15183;51.350;11.102;2023-02-07T01:27:58;31.17;;;19.02;;
27804;SDS011;15183;51.350;11.102;2023-02-07T01:30:24;33.80;;;18.92;;
27804;SDS011;15183;51.350;11.102;2023-02-07T01:32:51;32.63;;;19.50;;
27804;SDS011;15183;51.350;11.102;2023-02-07T01:35:17;35.00;;;19.70;;
27804;SDS011;15183;51.350;11.102;2023-02-07T01:37:44;34.50;;;19.40;;
27804;SDS011;15183;51.350;11.102;2023-02-07T01:40:11;35.55;;;18.40;;
27804;SDS011;15183;51.350;11.102;2023-02-07T01:42:38;26.55;;;16.63;;
27804;SDS011;15183;51.350;11.102;2023-02-07T01:45:11;28.38;;;15.82;;
27804;SDS011;15183;51.350;11.102;2023-02-07T01:47:50;24.65;;;15.38;;
27804;SDS011;15183;51.350;11.102;2023-02-07T01:50:17;29.02;;;16.08;;
27804;SDS011;15183;51.350;11.102;2023-02-07T01:52:44;29.42;;;16.95;;
27804;SDS011;15183;51.350;11.102;2023-02-07T01:55:16;29.80;;;15.85;;
27804;SDS011;15183;51.350;11.102;2023-02-07T01:57:50;27.77;;;17.30;;
27804;SDS011;15183;51.350;11.102;2023-02-07T02:00:18;30.75;;;18.45;;
27804;SDS011;15183;51.350;11.102;2023-02-07T02:02:48;30.05;;;17.15;;
27804;SDS011;15183;51.350;11.102;2023-02-07T02:05:14;30.00;;;16.65;;
27804;SDS011;15183;51.350;11.102;2023-02-07T02:07:42;31.92;;;17.92;;
27804;SDS011;15183;51.350;11.102;2023-02-07T02:10:12;32.45;;;18.17;;
27804;SDS011;15183;51.350;11.102;2023-02-07T02:12:50;32.20;;;18.13;;
27804;SDS011;15183;51.350;11.102;2023-02-07T02:15:37;30.60;;;17.17;;
27804;SDS011;15183;51.350;11.102;2023-02-07T02:24:14;27.80;;;14.70;;
27804;SDS011;15183;51.350;11.102;2023-02-07T02:33:19;32.88;;;17.27;;
27804;SDS011;15183;51.350;11.102;2023-02-07T02:36:07;26.92;;;16.63;;
27804;SDS011;15183;51.350;11.102;2023-02-07T02:39:20;28.10;;;16.35;;
27804;SDS011;15183;51.350;11.102;2023-02-07T02:42:04;29.75;;;16.20;;
27804;SDS011;15183;51.350;11.102;2023-02-07T02:44:46;27.70;;;15.57;;
27804;SDS011;15183;51.350;11.102;2023-02-07T02:47:20;25.92;;;15.57;;
27804;SDS011;15183;51.350;11.102;2023-02-07T02:49:48;22.88;;;13.82;;
27804;SDS011;15183;51.350;11.102;2023-02-07T02:52:15;28.90;;;15.90;;
27804;SDS011;15183;51.350;11.102;2023-02-07T02:54:42;28.13;;;16.90;;
27804;SDS011;15183;51.350;11.102;2023-02-07T03:03:12;29.17;;;16.90;;
27804;SDS011;15183;51.350;11.102;2023-02-07T03:12:25;27.98;;;15.35;;
27804;SDS011;15183;51.350;11.102;2023-02-07T03:15:35;27.65;;;15.77;;
27804;SDS011;15183;51.350;11.102;2023-02-07T03:18:13;26.15;;;15.32;;
27804;SDS011;15183;51.350;11.102;2023-02-07T03:20:51;29.25;;;16.63;;
27804;SDS011;15183;51.350;11.102;2023-02-07T03:23:28;28.63;;;15.73;;
27804;SDS011;15183;51.350;11.102;2023-02-07T03:25:57;26.17;;;14.82;;
27804;SDS011;15183;51.350;11.102;2023-02-07T03:28:26;25.52;;;15.82;;
27804;SDS011;15183;51.350;11.102;2023-02-07T03:30:55;26.10;;;16.00;;
27804;SDS011;15183;51.350;11.102;2023-02-07T03:33:23;28.00;;;14.98;;
27804;SDS011;15183;51.350;11.102;2023-02-07T03:38:44;27.05;;;14.80;;
27804;SDS011;15183;51.350;11.102;2023-02-07T03:41:13;25.17;;;14.38;;
27804;SDS011;15183;51.350;11.102;2023-02-07T03:43:46;28.02;;;16.13;;
27804;SDS011;15183;51.350;11.102;2023-02-07T03:46:14;24.17;;;15.25;;
27804;SDS011;15183;51.350;11.102;2023-02-07T03:48:40;27.98;;;16.17;;
27804;SDS011;15183;51.350;11.102;2023-02-07T03:51:07;25.02;;;15.43;;
27804;SDS011;15183;51.350;11.102;2023-02-07T03:53:33;25.23;;;14.93;;
27804;SDS011;15183;51.350;11.102;2023-02-07T03:55:59;23.73;;;14.55;;
27804;SDS011;15183;51.350;11.102;2023-02-07T03:58:26;26.05;;;16.05;;
27804;SDS011;15183;51.350;11.102;2023-02-07T04:00:52;26.45;;;15.90;;
27804;SDS011;15183;51.350;11.102;2023-02-07T04:03:19;26.05;;;15.35;;
27804;SDS011;15183;51.350;11.102;2023-02-07T04:05:45;27.02;;;15.57;;
27804;SDS011;15183;51.350;11.102;2023-02-07T04:08:14;25.90;;;15.05;;
27804;SDS011;15183;51.350;11.102;2023-02-07T04:10:40;26.92;;;15.63;;
27804;SDS011;15183;51.350;11.102;2023-02-07T04:13:07;28.92;;;13.52;;
27804;SDS011;15183;51.350;11.102;2023-02-07T04:15:33;25.33;;;14.70;;
27804;SDS011;15183;51.350;11.102;2023-02-07T04:17:59;28.92;;;16.88;;
27804;SDS011;15183;51.350;11.102;2023-02-07T04:20:26;32.83;;;17.98;;
27804;SDS011;15183;51.350;11.102;2023-02-07T04:22:52;38.22;;;26.13;;
27804;SDS011;15183;51.350;11.102;2023-02-07T04:25:18;30.77;;;19.08;;
27804;SDS011;15183;51.350;11.102;2023-02-07T04:27:45;33.83;;;18.70;;
27804;SDS011;15183;51.350;11.102;2023-02-07T04:30:11;27.73;;;17.42;;
27804;SDS011;15183;51.350;11.102;2023-02-07T04:32:38;28.48;;;17.55;;
27804;SDS011;15183;51.350;11.102;2023-02-07T04:35:04;27.45;;;16.58;;
27804;SDS011;15183;51.350;11.102;2023-02-07T04:37:31;25.73;;;16.17;;
27804;SDS011;15183;51.350;11.102;2023-02-07T04:39:57;28.02;;;17.60;;
27804;SDS011;15183;51.350;11.102;2023-02-07T04:42:24;29.20;;;16.45;;
27804;SDS011;15183;51.350;11.102;2023-02-07T04:44:50;28.30;;;17.00;;
27804;SDS011;15183;51.350;11.102;2023-02-07T04:47:16;26.55;;;15.73;;
27804;SDS011;15183;51.350;11.102;2023-02-07T04:49:43;26.65;;;16.20;;
27804;SDS011;15183;51.350;11.102;2023-02-07T04:52:09;24.83;;;15.07;;
27804;SDS011;15183;51.350;11.102;2023-02-07T04:54:36;31.42;;;16.58;;
27804;SDS011;15183;51.350;11.102;2023-02-07T04:57:02;27.50;;;15.73;;
27804;SDS011;15183;51.350;11.102;2023-02-07T04:59:29;29.27;;;16.65;;
27804;SDS011;15183;51.350;11.102;2023-02-07T05:01:55;30.63;;;17.58;;
27804;SDS011;15183;51.350;11.102;2023-02-07T05:04:21;30.10;;;18.08;;
27804;SDS011;15183;51.350;11.102;2023-02-07T05:06:48;30.08;;;17.05;;
27804;SDS011;15183;51.350;11.102;2023-02-07T05:09:14;28.65;;;17.00;;
27804;SDS011;15183;51.350;11.102;2023-02-07T05:11:41;30.00;;;17.42;;
27804;SDS011;15183;51.350;11.102;2023-02-07T05:14:07;32.40;;;18.58;;
27804;SDS011;15183;51.350;11.102;2023-02-07T05:16:33;33.75;;;17.30;;
27804;SDS011;15183;51.350;11.102;2023-02-07T05:19:00;32.35;;;17.35;;
27804;SDS011;15183;51.350;11.102;2023-02-07T05:21:26;30.17;;;17.15;;
27804;SDS011;15183;51.350;11.102;2023-02-07T05:23:52;32.63;;;17.90;;
27804;SDS011;15183;51.350;11.102;2023-02-07T05:26:19;32.38;;;17.75;;
27804;SDS011;15183;51.350;11.102;2023-02-07T05:28:45;28.35;;;16.40;;
27804;SDS011;15183;51.350;11.102;2023-02-07T05:31:12;28.60;;;16.30;;
27804;SDS011;15183;51.350;11.102;2023-02-07T05:33:38;32.05;;;18.23;;
27804;SDS011;15183;51.350;11.102;2023-02-07T05:36:05;28.58;;;16.55;;
27804;SDS011;15183;51.350;11.102;2023-02-07T05:38:33;32.03;;;17.38;;
27804;SDS011;15183;51.350;11.102;2023-02-07T05:40:59;36.17;;;18.45;;
27804;SDS011;15183;51.350;11.102;2023-02-07T05:43:26;35.08;;;19.00;;
27804;SDS011;15183;51.350;11.102;2023-02-07T05:45:52;32.05;;;18.38;;
27804;SDS011;15183;51.350;11.102;2023-02-07T05:48:19;29.95;;;16.75;;
27804;SDS011;15183;51.350;11.102;2023-02-07T05:50:45;32.10;;;17.77;;
27804;SDS011;15183;51.350;11.102;2023-02-07T05:53:13;30.70;;;17.30;;
27804;SDS011;15183;51.350;11.102;2023-02-07T05:55:40;34.50;;;18.92;;
27804;SDS011;15183;51.350;11.102;2023-02-07T05:58:06;31.70;;;17.30;;
27804;SDS011;15183;51.350;11.102;2023-02-07T06:00:32;33.40;;;17.98;;
27804;SDS011;15183;51.350;11.102;2023-02-07T06:02:59;35.35;;;19.52;;
27804;SDS011;15183;51.350;11.102;2023-02-07T06:05:25;39.58;;;20.85;;
27804;SDS011;15183;51.350;11.102;2023-02-07T06:07:56;39.38;;;20.70;;
27804;SDS011;15183;51.350;11.102;2023-02-07T06:10:22;38.95;;;20.80;;
27804;SDS011;15183;51.350;11.102;2023-02-07T06:12:49;37.90;;;20.27;;
27804;SDS011;15183;51.350;11.102;2023-02-07T06:15:15;37.58;;;20.02;;
27804;SDS011;15183;51.350;11.102;2023-02-07T06:17:42;35.03;;;20.00;;
27804;SDS011;15183;51.350;11.102;2023-02-07T06:20:08;31.85;;;16.92;;
27804;SDS011;15183;51.350;11.102;2023-02-07T06:22:35;30.00;;;17.42;;
27804;SDS011;15183;51.350;11.102;2023-02-07T06:25:01;34.28;;;18.02;;
27804;SDS011;15183;51.350;11.102;2023-02-07T06:27:28;39.40;;;20.00;;
27804;SDS011;15183;51.350;11.102;2023-02-07T06:29:55;37.85;;;19.58;;
27804;SDS011;15183;51.350;11.102;2023-02-07T06:32:21;37.03;;;18.95;;
27804;SDS011;15183;51.350;11.102;2023-02-07T06:34:47;37.88;;;19.95;;
27804;SDS011;15183;51.350;11.102;2023-02-07T06:37:14;32.38;;;18.38;;
27804;SDS011;15183;51.350;11.102;2023-02-07T06:39:40;39.92;;;20.77;;
27804;SDS011;15183;51.350;11.102;2023-02-07T06:42:06;36.63;;;19.38;;
27804;SDS011;15183;51.350;11.102;2023-02-07T06:44:33;34.83;;;19.10;;
27804;SDS011;15183;51.350;11.102;2023-02-07T06:46:59;39.90;;;21.00;;
27804;SDS011;15183;51.350;11.102;2023-02-07T06:49:26;41.13;;;21.33;;
27804;SDS011;15183;51.350;11.102;2023-02-07T06:51:52;39.97;;;20.75;;
27804;SDS011;15183;51.350;11.102;2023-02-07T06:54:18;42.58;;;21.17;;
27804;SDS011;15183;51.350;11.102;2023-02-07T06:56:45;41.58;;;22.08;;
27804;SDS011;15183;51.350;11.102;2023-02-07T06:59:11;39.90;;;21.42;;
27804;SDS011;15183;51.350;11.102;2023-02-07T07:01:38;42.85;;;21.63;;
27804;SDS011;15183;51.350;11.102;2023-02-07T07:04:04;39.33;;;21.27;;
27804;SDS011;15183;51.350;11.102;2023-02-07T07:06:31;41.50;;;22.23;;
27804;SDS011;15183;51.350;11.102;2023-02-07T07:08:57;40.10;;;21.25;;
27804;SDS011;15183;51.350;11.102;2023-02-07T07:11:24;46.70;;;22.63;;
27804;SDS011;15183;51.350;11.102;2023-02-07T07:13:50;42.55;;;22.33;;
27804;SDS011;15183;51.350;11.102;2023-02-07T07:16:17;42.85;;;23.50;;
27804;SDS011;15183;51.350;11.102;2023-02-07T07:18:43;42.47;;;22.85;;
27804;SDS011;15183;51.350;11.102;2023-02-07T07:21:10;45.33;;;23.48;;
27804;SDS011;15183;51.350;11.102;2023-02-07T07:23:37;45.67;;;23.58;;
27804;SDS011;15183;51.350;11.102;2023-02-07T07:26:03;41.78;;;22.15;;
27804;SDS011;15183;51.350;11.102;2023-02-07T07:28:30;45.17;;;23.48;;
27804;SDS011;15183;51.350;11.102;2023-02-07T07:31:03;44.83;;;24.02;;
27804;SDS011;15183;51.350;11.102;2023-02-07T07:33:32;41.80;;;23.05;;
27804;SDS011;15183;51.350;11.102;2023-02-07T07:36:00;45.72;;;24.02;;
27804;SDS011;15183;51.350;11.102;2023-02-07T07:38:28;47.78;;;25.70;;
27804;SDS011;15183;51.350;11.102;2023-02-07T07:40:56;51.38;;;25.67;;
27804;SDS011;15183;51.350;11.102;2023-02-07T07:43:23;43.25;;;22.52;;
27804;SDS011;15183;51.350;11.102;2023-02-07T07:45:54;46.83;;;24.48;;
27804;SDS011;15183;51.350;11.102;2023-02-07T07:48:22;45.70;;;24.83;;
27804;SDS011;15183;51.350;11.102;2023-02-07T07:50:49;45.07;;;23.70;;
27804;SDS011;15183;51.350;11.102;2023-02-07T07:53:17;39.58;;;22.73;;
27804;SDS011;15183;51.350;11.102;2023-02-07T07:55:51;43.63;;;23.60;;
27804;SDS011;15183;51.350;11.102;2023-02-07T07:58:21;42.63;;;23.60;;
27804;SDS011;15183;51.350;11.102;2023-02-07T08:00:50;42.40;;;21.85;;
27804;SDS011;15183;51.350;11.102;2023-02-07T08:03:17;38.42;;;22.38;;
27804;SDS011;15183;51.350;11.102;2023-02-07T08:05:45;46.85;;;24.45;;
27804;SDS011;15183;51.350;11.102;2023-02-07T08:08:11;47.60;;;24.75;;
27804;SDS011;15183;51.350;11.102;2023-02-07T08:10:38;46.50;;;23.63;;
27804;SDS011;15183;51.350;11.102;2023-02-07T08:13:05;39.00;;;21.48;;
27804;SDS011;15183;51.350;11.102;2023-02-07T08:15:32;40.40;;;22.08;;
27804;SDS011;15183;51.350;11.102;2023-02-07T08:17:58;39.97;;;21.73;;
27804;SDS011;15183;51.350;11.102;2023-02-07T08:20:25;43.42;;;24.00;;
27804;SDS011;15183;51.350;11.102;2023-02-07T08:22:51;45.17;;;23.48;;
27804;SDS011;15183;51.350;11.102;2023-02-07T08:25:18;42.95;;;23.75;;
27804;SDS011;15183;51.350;11.102;2023-02-07T08:27:44;44.08;;;23.58;;
27804;SDS011;15183;51.350;11.102;2023-02-07T08:30:11;41.60;;;22.23;;
27804;SDS011;15183;51.350;11.102;2023-02-07T08:32:39;40.85;;;22.25;;
27804;SDS011;15183;51.350;11.102;2023-02-07T08:35:06;46.42;;;25.15;;
27804;SDS011;15183;51.350;11.102;2023-02-07T08:37:34;41.67;;;23.33;;
27804;SDS011;15183;51.350;11.102;2023-02-07T08:40:00;44.03;;;23.98;;
27804;SDS011;15183;51.350;11.102;2023-02-07T08:42:29;38.92;;;21.63;;
27804;SDS011;15183;51.350;11.102;2023-02-07T08:44:56;48.92;;;26.80;;
27804;SDS011;15183;51.350;11.102;2023-02-07T08:47:22;49.80;;;26.85;;
27804;SDS011;15183;51.350;11.102;2023-02-07T08:49:48;39.35;;;22.13;;
27804;SDS011;15183;51.350;11.102;2023-02-07T08:52:15;40.80;;;21.52;;
27804;SDS011;15183;51.350;11.102;2023-02-07T08:54:41;53.38;;;28.38;;
27804;SDS011;15183;51.350;11.102;2023-02-07T08:57:08;42.00;;;22.85;;
27804;SDS011;15183;51.350;11.102;2023-02-07T08:59:34;37.50;;;20.08;;
27804;SDS011;15183;51.350;11.102;2023-02-07T09:02:01;46.85;;;24.75;;
27804;SDS011;15183;51.350;11.102;2023-02-07T09:04:27;43.85;;;23.50;;
27804;SDS011;15183;51.350;11.102;2023-02-07T09:06:54;36.85;;;21.88;;
27804;SDS011;15183;51.350;11.102;2023-02-07T09:09:20;42.67;;;22.83;;
27804;SDS011;15183;51.350;11.102;2023-02-07T09:11:47;45.28;;;24.30;;
27804;SDS011;15183;51.350;11.102;2023-02-07T09:14:13;66.13;;;33.67;;
27804;SDS011;15183;51.350;11.102;2023-02-07T09:16:39;70.32;;;37.25;;
27804;SDS011;15183;51.350;11.102;2023-02-07T09:19:06;78.22;;;39.80;;
27804;SDS011;15183;51.350;11.102;2023-02-07T09:21:32;56.88;;;30.52;;
27804;SDS011;15183;51.350;11.102;2023-02-07T09:23:59;46.00;;;25.05;;
27804;SDS011;15183;51.350;11.102;2023-02-07T09:26:27;47.08;;;25.08;;
27804;SDS011;15183;51.350;11.102;2023-02-07T09:28:55;58.65;;;31.33;;
27804;SDS011;15183;51.350;11.102;2023-02-07T09:31:22;49.72;;;28.13;;
27804;SDS011;15183;51.350;11.102;2023-02-07T09:33:49;74.20;;;33.67;;
27804;SDS011;15183;51.350;11.102;2023-02-07T09:36:16;45.78;;;24.00;;
27804;SDS011;15183;51.350;11.102;2023-02-07T09:38:48;42.78;;;23.10;;
27804;SDS011;15183;51.350;11.102;2023-02-07T09:41:48;45.40;;;24.23;;
27804;SDS011;15183;51.350;11.102;2023-02-07T09:44:45;58.60;;;29.67;;
27804;SDS011;15183;51.350;11.102;2023-02-07T09:47:17;59.10;;;28.88;;
27804;SDS011;15183;51.350;11.102;2023-02-07T09:49:56;63.95;;;31.00;;
27804;SDS011;15183;51.350;11.102;2023-02-07T09:52:29;44.80;;;25.98;;
27804;SDS011;15183;51.350;11.102;2023-02-07T09:55:03;62.70;;;30.33;;
27804;SDS011;15183;51.350;11.102;2023-02-07T09:57:32;60.30;;;30.90;;
27804;SDS011;15183;51.350;11.102;2023-02-07T10:06:06;46.05;;;26.02;;
27804;SDS011;15183;51.350;11.102;2023-02-07T10:08:40;50.50;;;27.25;;
27804;SDS011;15183;51.350;11.102;2023-02-07T10:11:08;46.78;;;25.65;;
27804;SDS011;15183;51.350;11.102;2023-02-07T10:14:14;39.70;;;22.23;;
27804;SDS011;15183;51.350;11.102;2023-02-07T10:17:04;38.38;;;22.65;;
27804;SDS011;15183;51.350;11.102;2023-02-07T10:19:48;42.33;;;22.80;;
27804;SDS011;15183;51.350;11.102;2023-02-07T10:30:40;43.30;;;22.52;;
27804;SDS011;15183;51.350;11.102;2023-02-07T10:33:19;52.63;;;26.37;;
27804;SDS011;15183;51.350;11.102;2023-02-07T10:35:53;42.63;;;23.40;;
27804;SDS011;15183;51.350;11.102;2023-02-07T10:40:59;51.17;;;27.30;;
27804;SDS011;15183;51.350;11.102;2023-02-07T10:43:50;41.50;;;23.40;;
27804;SDS011;15183;51.350;11.102;2023-02-07T10:46:17;53.80;;;28.02;;
27804;SDS011;15183;51.350;11.102;2023-02-07T10:48:45;46.30;;;26.95;;
27804;SDS011;15183;51.350;11.102;2023-02-07T10:51:20;51.63;;;27.77;;
27804;SDS011;15183;51.350;11.102;2023-02-07T10:54:07;48.90;;;26.33;;
27804;SDS011;15183;51.350;11.102;2023-02-07T10:56:41;41.08;;;22.95;;
27804;SDS011;15183;51.350;11.102;2023-02-07T11:04:59;37.85;;;21.17;;
27804;SDS011;15183;51.350;11.102;2023-02-07T11:10:43;39.35;;;21.58;;
27804;SDS011;15183;51.350;11.102;2023-02-07T11:13:12;39.05;;;20.95;;
27804;SDS011;15183;51.350;11.102;2023-02-07T11:18:32;58.83;;;30.40;;
27804;SDS011;15183;51.350;11.102;2023-02-07T11:21:19;57.20;;;28.33;;
27804;SDS011;15183;51.350;11.102;2023-02-07T11:24:12;52.97;;;27.65;;
27804;SDS011;15183;51.350;11.102;2023-02-07T11:26:59;58.90;;;29.80;;
27804;SDS011;15183;51.350;11.102;2023-02-07T11:29:37;46.92;;;24.02;;
27804;SDS011;15183;51.350;11.102;2023-02-07T11:32:18;42.75;;;23.63;;
27804;SDS011;15183;51.350;11.102;2023-02-07T11:34:47;59.60;;;29.83;;
27804;SDS011;15183;51.350;11.102;2023-02-07T11:40:24;81.63;;;41.45;;
27804;SDS011;15183;51.350;11.102;2023-02-07T11:43:08;70.93;;;35.67;;
27804;SDS011;15183;51.350;11.102;2023-02-07T11:45:42;86.47;;;44.13;;
27804;SDS011;15183;51.350;11.102;2023-02-07T11:48:18;49.30;;;26.92;;
27804;SDS011;15183;51.350;11.102;2023-02-07T11:50:56;67.22;;;34.15;;
27804;SDS011;15183;51.350;11.102;2023-02-07T11:53:36;42.10;;;23.83;;
27804;SDS011;15183;51.350;11.102;2023-02-07T11:58:55;37.33;;;21.52;;
27804;SDS011;15183;51.350;11.102;2023-02-07T12:01:27;63.60;;;32.40;;
27804;SDS011;15183;51.350;11.102;2023-02-07T12:03:59;39.90;;;23.08;;
27804;SDS011;15183;51.350;11.102;2023-02-07T12:06:34;60.22;;;29.80;;
27804;SDS011;15183;51.350;11.102;2023-02-07T12:12:15;100.15;;;48.50;;
27804;SDS011;15183;51.350;11.102;2023-02-07T12:15:00;65.10;;;32.25;;
27804;SDS011;15183;51.350;11.102;2023-02-07T12:17:41;55.85;;;28.52;;
27804;SDS011;15183;51.350;11.102;2023-02-07T12:20:40;58.42;;;30.50;;
27804;SDS011;15183;51.350;11.102;2023-02-07T12:26:22;55.92;;;29.52;;
27804;SDS011;15183;51.350;11.102;2023-02-07T12:29:24;43.13;;;24.38;;
27804;SDS011;15183;51.350;11.102;2023-02-07T12:32:25;93.13;;;45.70;;
27804;SDS011;15183;51.350;11.102;2023-02-07T12:35:14;63.40;;;32.35;;
27804;SDS011;15183;51.350;11.102;2023-02-07T12:37:57;72.20;;;36.47;;
27804;SDS011;15183;51.350;11.102;2023-02-07T12:43:56;100.78;;;49.10;;
27804;SDS011;15183;51.350;11.102;2023-02-07T12:46:40;113.47;;;56.60;;
27804;SDS011;15183;51.350;11.102;2023-02-07T12:49:51;82.85;;;42.15;;
27804;SDS011;15183;51.350;11.102;2023-02-07T13:01:31;73.80;;;39.40;;
27804;SDS011;15183;51.350;11.102;2023-02-07T13:07:20;47.40;;;26.98;;
27804;SDS011;15183;51.350;11.102;2023-02-07T13:16:12;55.20;;;29.63;;
27804;SDS011;15183;51.350;11.102;2023-02-07T13:25:04;36.78;;;21.10;;
27804;SDS011;15183;51.350;11.102;2023-02-07T13:27:39;42.33;;;23.83;;
27804;SDS011;15183;51.350;11.102;2023-02-07T13:30:11;39.67;;;22.83;;
27804;SDS011;15183;51.350;11.102;2023-02-07T13:32:42;37.87;;;22.33;;
27804;SDS011;15183;51.350;11.102;2023-02-07T13:35:10;60.75;;;31.42;;
27804;SDS011;15183;51.350;11.102;2023-02-07T13:38:06;46.22;;;25.65;;
27804;SDS011;15183;51.350;11.102;2023-02-07T13:41:05;58.43;;;30.23;;
27804;SDS011;15183;51.350;11.102;2023-02-07T13:44:41;47.65;;;25.90;;
27804;SDS011;15183;51.350;11.102;2023-02-07T13:53:20;67.82;;;34.22;;
27804;SDS011;15183;51.350;11.102;2023-02-07T13:55:54;46.58;;;25.70;;
27804;SDS011;15183;51.350;11.102;2023-02-07T14:01:20;58.88;;;30.38;;
27804;SDS011;15183;51.350;11.102;2023-02-07T14:06:36;40.00;;;23.05;;
27804;SDS011;15183;51.350;11.102;2023-02-07T14:09:38;42.53;;;23.42;;
27804;SDS011;15183;51.350;11.102;2023-02-07T14:12:21;41.30;;;23.05;;
27804;SDS011;15183;51.350;11.102;2023-02-07T14:14:49;46.05;;;23.92;;
27804;SDS011;15183;51.350;11.102;2023-02-07T14:19:55;46.20;;;25.00;;
27804;SDS011;15183;51.350;11.102;2023-02-07T14:27:36;37.03;;;21.60;;
27804;SDS011;15183;51.350;11.102;2023-02-07T14:36:18;47.88;;;25.38;;
27804;SDS011;15183;51.350;11.102;2023-02-07T14:38:43;46.20;;;25.45;;
27804;SDS011;15183;51.350;11.102;2023-02-07T14:41:30;39.90;;;21.45;;
27804;SDS011;15183;51.350;11.102;2023-02-07T14:44:01;38.17;;;21.23;;
27804;SDS011;15183;51.350;11.102;2023-02-07T14:54:22;34.28;;;19.33;;
27804;SDS011;15183;51.350;11.102;2023-02-07T15:02:40;45.55;;;24.25;;
27804;SDS011;15183;51.350;11.102;2023-02-07T15:05:20;54.33;;;27.70;;
27804;SDS011;15183;51.350;11.102;2023-02-07T15:10:29;51.15;;;25.38;;
27804;SDS011;15183;51.350;11.102;2023-02-07T15:15:57;49.45;;;25.63;;
27804;SDS011;15183;51.350;11.102;2023-02-07T15:19:02;52.60;;;27.80;;
27804;SDS011;15183;51.350;11.102;2023-02-07T15:21:40;49.50;;;26.45;;
27804;SDS011;15183;51.350;11.102;2023-02-07T15:27:03;48.38;;;26.63;;
27804;SDS011;15183;51.350;11.102;2023-02-07T15:29:35;45.28;;;25.88;;
27804;SDS011;15183;51.350;11.102;2023-02-07T15:32:21;45.60;;;25.00;;
27804;SDS011;15183;51.350;11.102;2023-02-07T15:35:10;55.30;;;29.83;;
27804;SDS011;15183;51.350;11.102;2023-02-07T15:37:43;46.20;;;25.83;;
27804;SDS011;15183;51.350;11.102;2023-02-07T15:40:14;55.40;;;27.92;;
27804;SDS011;15183;51.350;11.102;2023-02-07T15:45:25;51.25;;;27.08;;
27804;SDS011;15183;51.350;11.102;2023-02-07T15:48:02;51.05;;;28.40;;
27804;SDS011;15183;51.350;11.102;2023-02-07T15:50:34;40.28;;;21.05;;
27804;SDS011;15183;51.350;11.102;2023-02-07T15:53:03;36.15;;;20.30;;
27804;SDS011;15183;51.350;11.102;2023-02-07T15:58:02;36.78;;;20.90;;
27804;SDS011;15183;51.350;11.102;2023-02-07T16:00:31;45.85;;;24.17;;
27804;SDS011;15183;51.350;11.102;2023-02-07T16:03:05;48.70;;;27.30;;
27804;SDS011;15183;51.350;11.102;2023-02-07T16:05:38;48.70;;;26.73;;
27804;SDS011;15183;51.350;11.102;2023-02-07T16:08:26;51.63;;;26.90;;
27804;SDS011;15183;51.350;11.102;2023-02-07T16:11:10;47.95;;;25.50;;
27804;SDS011;15183;51.350;11.102;2023-02-07T16:13:54;42.28;;;23.48;;
27804;SDS011;15183;51.350;11.102;2023-02-07T16:16:28;40.88;;;19.67;;
27804;SDS011;15183;51.350;11.102;2023-02-07T16:19:06;39.72;;;18.50;;
27804;SDS011;15183;51.350;11.102;2023-02-07T16:22:15;47.95;;;25.77;;
27804;SDS011;15183;51.350;11.102;2023-02-07T16:24:44;53.85;;;28.25;;
27804;SDS011;15183;51.350;11.102;2023-02-07T16:27:21;49.25;;;25.85;;
27804;SDS011;15183;51.350;11.102;2023-02-07T16:29:55;49.33;;;25.15;;
27804;SDS011;15183;51.350;11.102;2023-02-07T16:32:27;43.17;;;23.92;;
27804;SDS011;15183;51.350;11.102;2023-02-07T16:34:58;45.70;;;25.45;;
27804;SDS011;15183;51.350;11.102;2023-02-07T16:37:25;48.83;;;24.77;;
27804;SDS011;15183;51.350;11.102;2023-02-07T16:39:53;50.85;;;26.35;;
27804;SDS011;15183;51.350;11.102;2023-02-07T16:42:19;50.03;;;24.88;;
27804;SDS011;15183;51.350;11.102;2023-02-07T16:44:46;48.92;;;25.45;;
27804;SDS011;15183;51.350;11.102;2023-02-07T16:47:12;48.20;;;25.60;;
27804;SDS011;15183;51.350;11.102;2023-02-07T16:49:43;52.63;;;27.50;;
27804;SDS011;15183;51.350;11.102;2023-02-07T16:52:10;51.00;;;27.02;;
27804;SDS011;15183;51.350;11.102;2023-02-07T16:54:37;49.53;;;26.63;;
27804;SDS011;15183;51.350;11.102;2023-02-07T16:57:03;44.22;;;23.75;;
27804;SDS011;15183;51.350;11.102;2023-02-07T16:59:30;41.40;;;23.33;;
27804;SDS011;15183;51.350;11.102;2023-02-07T17:01:56;40.67;;;21.92;;
27804;SDS011;15183;51.350;11.102;2023-02-07T17:04:23;45.17;;;24.30;;